createdAt,value
2022-08-03T00:01:35.321Z,7.50
2022-08-03T00:04:02.099Z,7.00
2022-08-03T00:06:31.628Z,8.23
2022-08-03T00:09:01.132Z,4.72
2022-08-03T00:11:27.904Z,4.75
2022-08-03T00:13:54.660Z,4.78
2022-08-03T00:16:21.414Z,6.47
2022-08-03T00:18:49.857Z,6.47
2022-08-03T00:21:16.625Z,4.63
2022-08-03T00:23:51.888Z,4.95
2022-08-03T00:26:20.344Z,5.18
2022-08-03T00:28:47.433Z,6.72
2022-08-03T00:31:14.491Z,4.50
2022-08-03T00:33:59.174Z,4.43
2022-08-03T00:36:27.428Z,4.68
2022-08-03T00:38:54.740Z,4.55
2022-08-03T00:41:21.536Z,4.45
2022-08-03T00:43:48.484Z,7.80
2022-08-03T00:46:20.569Z,6.00
2022-08-03T00:48:53.097Z,4.75
2022-08-03T00:51:21.612Z,5.55
2022-08-03T00:53:48.919Z,6.18
2022-08-03T00:56:16.755Z,5.35
2022-08-03T00:58:47.217Z,5.75
2022-08-03T01:01:14.874Z,6.07
2022-08-03T01:03:42.072Z,5.28
2022-08-03T01:06:11.745Z,5.20
2022-08-03T01:08:48.332Z,5.15
2022-08-03T01:11:28.771Z,5.70
2022-08-03T01:14:18.904Z,5.40
2022-08-03T01:16:52.597Z,6.18
2022-08-03T01:19:45.889Z,6.20
2022-08-03T01:22:27.740Z,5.57
2022-08-03T01:25:26.470Z,5.70
2022-08-03T01:28:14.748Z,5.05
2022-08-03T01:30:45.488Z,5.40
2022-08-03T01:33:24.142Z,7.95
2022-08-03T01:35:58.955Z,5.78
2022-08-03T01:38:29.296Z,5.43
2022-08-03T01:40:57.788Z,5.10
2022-08-03T01:44:27.356Z,4.97
2022-08-03T01:46:17.784Z,6.80
2022-08-03T01:48:47.913Z,5.40
2022-08-03T01:51:18.340Z,6.10
2022-08-03T01:53:46.761Z,6.10
2022-08-03T01:56:16.201Z,5.40
2022-08-03T01:58:46.253Z,5.00
2022-08-03T02:01:15.246Z,6.25
2022-08-03T02:03:59.485Z,6.85
2022-08-03T02:07:02.356Z,5.35
2022-08-03T02:09:20.868Z,5.68
2022-08-03T02:11:51.090Z,6.88
2022-08-03T02:14:22.001Z,4.70
2022-08-03T02:16:49.973Z,4.72
2022-08-03T02:19:18.045Z,5.50
2022-08-03T02:21:56.559Z,5.20
2022-08-03T02:24:28.354Z,5.87
2022-08-03T02:26:56.786Z,7.38
2022-08-03T02:29:39.142Z,5.03
2022-08-03T02:32:12.423Z,7.68
2022-08-03T02:34:42.121Z,5.75
2022-08-03T02:37:11.991Z,6.90
2022-08-03T02:39:40.882Z,6.35
2022-08-03T02:42:09.505Z,7.55
2022-08-03T02:44:40.636Z,6.30
2022-08-03T02:47:10.841Z,9.23
2022-08-03T02:49:51.556Z,5.05
2022-08-03T02:52:24.138Z,5.70
2022-08-03T02:54:54.848Z,5.60
2022-08-03T02:57:23.161Z,6.60
2022-08-03T02:59:50.462Z,6.15
2022-08-03T03:02:19.606Z,7.05
2022-08-03T03:05:50.714Z,5.13
2022-08-03T03:07:51.338Z,6.15
2022-08-03T03:10:22.806Z,5.10
2022-08-03T03:12:53.230Z,6.85
2022-08-03T03:15:20.375Z,6.75
2022-08-03T03:17:49.948Z,5.28
2022-08-03T03:20:29.055Z,5.78
2022-08-03T03:23:00.506Z,5.53
2022-08-03T03:25:30.560Z,5.60
2022-08-03T03:27:59.246Z,8.13
2022-08-03T03:30:26.592Z,5.88
2022-08-03T03:32:54.296Z,5.60
2022-08-03T03:35:21.398Z,8.10
2022-08-03T03:37:48.240Z,6.35
2022-08-03T03:40:15.208Z,6.97
2022-08-03T03:42:42.261Z,8.02
2022-08-03T03:45:09.678Z,6.35
2022-08-03T03:47:37.231Z,10.32
2022-08-03T03:50:05.922Z,6.50
2022-08-03T03:52:34.035Z,8.38
2022-08-03T03:55:01.579Z,6.38
2022-08-03T03:57:29.692Z,6.90
2022-08-03T03:59:56.595Z,6.50
2022-08-03T04:02:23.993Z,5.93
2022-08-03T04:05:09.204Z,6.68
2022-08-03T04:08:13.568Z,8.93
2022-08-03T04:13:35.181Z,7.90
2022-08-03T04:16:02.738Z,6.93
2022-08-03T04:18:32.772Z,9.13
2022-08-03T04:21:03.471Z,7.85
2022-08-03T04:23:33.035Z,9.07
2022-08-03T04:26:03.184Z,8.43
2022-08-03T04:28:32.452Z,10.15
2022-08-03T04:31:01.220Z,7.88
2022-08-03T04:33:31.104Z,8.05
2022-08-03T04:36:03.376Z,5.85
2022-08-03T04:38:36.514Z,5.88
2022-08-03T04:41:03.673Z,8.47
2022-08-03T04:43:33.438Z,9.20
2022-08-03T04:46:01.613Z,5.70
2022-08-03T04:48:29.088Z,6.80
2022-08-03T04:50:56.089Z,10.25
2022-08-03T04:53:22.913Z,9.27
2022-08-03T04:55:50.348Z,8.55
2022-08-03T04:58:18.654Z,9.23
2022-08-03T05:00:45.658Z,7.25
2022-08-03T05:03:20.517Z,6.93
2022-08-03T05:06:01.473Z,8.75
2022-08-03T05:08:29.486Z,8.18
2022-08-03T05:10:59.416Z,6.32
2022-08-03T05:13:26.460Z,8.95
2022-08-03T05:15:53.456Z,12.18
2022-08-03T05:18:20.420Z,6.97
2022-08-03T05:20:47.313Z,8.15
2022-08-03T05:23:14.276Z,7.63
2022-08-03T05:25:49.882Z,8.50
2022-08-03T05:28:17.102Z,10.20
2022-08-03T05:30:43.830Z,12.32
2022-08-03T05:33:11.023Z,11.82
2022-08-03T05:36:03.020Z,13.98
2022-08-03T05:38:28.632Z,14.13
2022-08-03T05:41:23.212Z,13.10
2022-08-03T05:43:44.808Z,10.32
2022-08-03T05:46:13.168Z,9.63
2022-08-03T05:48:41.227Z,9.00
2022-08-03T05:51:11.290Z,8.68
2022-08-03T05:53:39.474Z,10.23
2022-08-03T05:56:14.374Z,10.15
2022-08-03T05:58:47.520Z,11.50
2022-08-03T06:01:15.465Z,11.90
2022-08-03T06:03:42.388Z,9.77
2022-08-03T06:06:09.454Z,10.13
2022-08-03T06:08:36.271Z,8.95
2022-08-03T06:11:03.965Z,11.00
2022-08-03T06:13:30.680Z,10.35
2022-08-03T06:15:57.412Z,7.97
2022-08-03T06:18:27.078Z,8.75
2022-08-03T06:20:54.166Z,7.57
2022-08-03T06:23:23.320Z,8.15
2022-08-03T06:26:09.337Z,8.50
2022-08-03T06:28:52.327Z,8.73
2022-08-03T06:31:23.765Z,5.95
2022-08-03T06:34:33.567Z,10.45
2022-08-03T06:36:37.294Z,8.57
2022-08-03T06:39:04.422Z,7.82
2022-08-03T06:41:31.662Z,8.88
2022-08-03T06:44:05.114Z,7.45
2022-08-03T06:46:31.837Z,7.45
2022-08-03T06:48:58.701Z,7.03
2022-08-03T06:52:05.545Z,8.00
2022-08-03T06:54:12.623Z,7.57
2022-08-03T06:56:39.362Z,6.45
2022-08-03T06:59:06.068Z,8.95
2022-08-03T07:01:32.802Z,6.25
2022-08-03T07:04:00.515Z,6.70
2022-08-03T07:06:27.336Z,5.43
2022-08-03T07:08:59.000Z,4.63
2022-08-03T07:11:26.528Z,6.97
2022-08-03T07:13:53.250Z,5.65
2022-08-03T07:16:20.430Z,7.85
2022-08-03T07:18:47.193Z,6.32
2022-08-03T07:21:16.126Z,5.50
2022-08-03T07:23:42.897Z,5.63
2022-08-03T07:26:09.739Z,6.00
2022-08-03T07:28:36.479Z,5.78
2022-08-03T07:31:04.232Z,5.28
2022-08-03T07:33:30.955Z,5.05
2022-08-03T07:35:57.879Z,6.03
2022-08-03T07:38:24.625Z,7.53
2022-08-03T07:40:51.321Z,6.10
2022-08-03T07:43:18.087Z,5.13
2022-08-03T07:45:44.797Z,3.90
2022-08-03T07:48:12.588Z,7.63
2022-08-03T07:50:39.658Z,3.55
2022-08-03T07:53:06.397Z,4.82
2022-08-03T07:55:33.313Z,4.05
2022-08-03T07:58:19.188Z,5.50
2022-08-03T08:00:50.892Z,3.42
2022-08-03T08:03:17.619Z,4.10
2022-08-03T08:05:44.668Z,3.35
2022-08-03T08:08:11.583Z,3.67
2022-08-03T08:10:38.336Z,5.72
2022-08-03T08:13:05.438Z,3.38
2022-08-03T08:15:32.486Z,3.85
2022-08-03T08:18:01.417Z,3.45
2022-08-03T08:20:32.150Z,2.70
2022-08-03T08:23:19.922Z,6.20
2022-08-03T08:25:52.211Z,5.60
2022-08-03T08:28:32.384Z,2.53
2022-08-03T08:31:00.732Z,3.95
2022-08-03T08:33:37.350Z,3.40
2022-08-03T08:36:15.556Z,3.72
2022-08-03T08:38:44.901Z,2.35
2022-08-03T08:41:13.092Z,6.55
2022-08-03T08:43:40.161Z,4.05
2022-08-03T08:46:08.472Z,4.82
2022-08-03T08:48:40.470Z,4.75
2022-08-03T08:51:08.890Z,3.50
2022-08-03T08:53:38.303Z,2.63
2022-08-03T08:56:07.629Z,4.68
2022-08-03T08:58:46.832Z,2.13
2022-08-03T09:01:13.649Z,5.18
2022-08-03T09:03:40.950Z,2.60
2022-08-03T09:06:07.666Z,2.90
2022-08-03T09:08:34.525Z,3.72
2022-08-03T09:11:01.427Z,3.33
2022-08-03T09:13:29.145Z,2.72
2022-08-03T09:16:22.435Z,4.97
2022-08-03T09:18:51.975Z,3.42
2022-08-03T09:21:33.974Z,3.65
2022-08-03T09:24:05.270Z,2.13
2022-08-03T09:26:35.025Z,4.15
2022-08-03T09:29:14.516Z,5.18
2022-08-03T09:31:45.438Z,4.47
2022-08-03T09:34:17.278Z,2.83
2022-08-03T09:36:50.935Z,3.13
2022-08-03T09:39:37.512Z,2.75
2022-08-03T09:42:17.516Z,3.25
2022-08-03T09:44:47.438Z,9.68
2022-08-03T09:47:16.854Z,4.72
2022-08-03T09:50:02.011Z,3.10
2022-08-03T09:52:39.147Z,3.30
2022-08-03T09:56:31.595Z,2.53
2022-08-03T09:58:10.197Z,2.22
2022-08-03T10:00:59.117Z,4.32
2022-08-03T10:03:28.578Z,2.92
2022-08-03T10:05:59.587Z,6.85
2022-08-03T10:08:27.156Z,2.15
2022-08-03T10:10:54.624Z,3.28
2022-08-03T10:13:23.021Z,2.78
2022-08-03T10:16:23.717Z,3.72
2022-08-03T10:18:37.226Z,2.10
2022-08-03T10:21:07.850Z,2.97
2022-08-03T10:23:35.577Z,4.25
2022-08-03T10:26:03.999Z,2.50
2022-08-03T10:28:44.940Z,2.05
2022-08-03T10:31:13.879Z,4.80
2022-08-03T10:33:51.197Z,2.63
2022-08-03T10:36:24.448Z,2.53
2022-08-03T10:38:53.620Z,3.13
2022-08-03T10:41:22.326Z,4.68
2022-08-03T10:44:07.338Z,4.30
2022-08-03T10:46:35.508Z,3.00
2022-08-03T10:49:03.358Z,2.83
2022-08-03T10:51:32.196Z,3.50
2022-08-03T10:54:01.898Z,3.33
2022-08-03T10:56:50.561Z,2.80
2022-08-03T10:59:27.802Z,4.30
2022-08-03T11:02:00.431Z,3.05
2022-08-03T11:04:29.551Z,2.78
2022-08-03T11:07:23.362Z,4.45
2022-08-03T11:12:33.025Z,4.68
2022-08-03T11:15:06.584Z,5.07
2022-08-03T11:17:46.150Z,3.35
2022-08-03T11:20:45.973Z,3.28
2022-08-03T11:23:13.352Z,3.38
2022-08-03T11:26:10.665Z,3.70
2022-08-03T11:28:40.647Z,4.57
2022-08-03T11:31:49.787Z,3.72
2022-08-03T11:34:17.680Z,2.70
2022-08-03T11:37:20.625Z,3.55
2022-08-03T11:39:49.660Z,3.97
2022-08-03T11:42:22.182Z,3.05
2022-08-03T11:44:54.328Z,3.05
2022-08-03T11:47:22.743Z,3.40
2022-08-03T11:49:51.159Z,3.33
2022-08-03T11:52:19.404Z,2.88
2022-08-03T11:54:56.679Z,3.40
2022-08-03T11:59:18.310Z,2.45
2022-08-03T12:00:32.879Z,3.90
2022-08-03T12:03:08.685Z,2.83
2022-08-03T12:05:51.578Z,3.97
2022-08-03T12:08:31.287Z,4.40
2022-08-03T12:11:00.609Z,2.72
2022-08-03T12:14:05.735Z,4.32
2022-08-03T12:16:24.397Z,3.63
2022-08-03T12:19:02.880Z,3.20
2022-08-03T12:21:30.553Z,3.00
2022-08-03T12:24:03.262Z,2.20
2022-08-03T12:26:42.702Z,4.25
2022-08-03T12:29:17.520Z,5.78
2022-08-03T12:31:44.572Z,3.22
2022-08-03T12:34:11.507Z,4.60
2022-08-03T12:36:39.111Z,2.03
2022-08-03T12:39:08.254Z,2.70
2022-08-03T12:41:38.286Z,2.33
2022-08-03T12:44:06.337Z,4.20
2022-08-03T12:46:47.061Z,3.17
2022-08-03T12:49:16.982Z,3.30
2022-08-03T12:51:43.915Z,4.10
2022-08-03T12:54:17.287Z,3.55
2022-08-03T12:57:00.932Z,3.35
2022-08-03T12:59:52.867Z,2.22
2022-08-03T13:02:23.666Z,2.38
2022-08-03T13:04:53.091Z,2.55
2022-08-03T13:07:21.758Z,2.35
2022-08-03T13:09:53.884Z,1.65
2022-08-03T13:12:25.408Z,4.38
2022-08-03T13:14:59.773Z,2.17
2022-08-03T13:17:27.372Z,2.22
2022-08-03T13:19:54.540Z,4.15
2022-08-03T13:22:27.292Z,2.72
2022-08-03T13:24:58.197Z,2.13
2022-08-03T13:28:03.219Z,3.05
2022-08-03T13:30:12.550Z,2.78
2022-08-03T13:32:39.557Z,2.85
2022-08-03T13:35:07.854Z,3.45
2022-08-03T13:37:35.317Z,2.75
2022-08-03T13:40:05.583Z,2.72
2022-08-03T13:42:34.514Z,2.60
2022-08-03T13:45:01.965Z,2.17
2022-08-03T13:47:29.878Z,2.38
2022-08-03T13:50:01.211Z,3.33
2022-08-03T13:52:35.064Z,1.88
2022-08-03T13:55:04.032Z,2.25
2022-08-03T13:58:04.142Z,4.10
2022-08-03T14:00:27.514Z,2.47
2022-08-03T14:03:13.750Z,2.72
2022-08-03T14:05:42.663Z,2.85
2022-08-03T14:08:10.449Z,4.80
2022-08-03T14:10:39.878Z,3.70
2022-08-03T14:13:06.973Z,6.88
2022-08-03T14:15:37.726Z,2.42
2022-08-03T14:18:07.124Z,4.90
2022-08-03T14:20:37.926Z,3.30
2022-08-03T14:23:15.373Z,2.05
2022-08-03T14:25:43.678Z,3.72
2022-08-03T14:28:20.570Z,2.40
2022-08-03T14:30:48.457Z,2.90
2022-08-03T14:33:15.594Z,1.88
2022-08-03T14:35:42.526Z,2.55
2022-08-03T14:38:09.323Z,2.75
2022-08-03T14:40:36.116Z,2.20
2022-08-03T14:43:02.880Z,1.90
2022-08-03T14:45:29.688Z,2.05
2022-08-03T14:50:28.475Z,2.83
2022-08-03T14:50:50.136Z,3.03
2022-08-03T14:53:18.024Z,2.92
2022-08-03T14:55:49.914Z,2.15
2022-08-03T14:58:22.495Z,2.88
2022-08-03T15:00:51.079Z,2.33
2022-08-03T15:03:23.717Z,3.65
2022-08-03T15:05:52.953Z,1.73
2022-08-03T15:08:19.909Z,2.40
2022-08-03T15:10:46.758Z,2.67
2022-08-03T15:13:16.892Z,2.92
2022-08-03T15:15:44.075Z,1.75
2022-08-03T15:18:11.209Z,2.60
2022-08-03T15:20:46.649Z,3.05
2022-08-03T15:23:14.975Z,4.32
2022-08-03T15:26:32.242Z,4.15
2022-08-03T15:28:29.919Z,4.18
2022-08-03T15:30:56.718Z,2.13
2022-08-03T15:33:23.458Z,2.42
2022-08-03T15:35:50.329Z,3.53
2022-08-03T15:38:17.582Z,2.85
2022-08-03T15:40:44.770Z,4.00
2022-08-03T15:43:11.641Z,3.40
2022-08-03T15:45:38.462Z,3.65
2022-08-03T15:48:06.004Z,3.92
2022-08-03T15:50:32.768Z,3.20
2022-08-03T15:52:59.543Z,4.15
2022-08-03T15:55:26.628Z,4.40
2022-08-03T15:59:04.789Z,2.70
2022-08-03T16:00:41.501Z,3.90
2022-08-03T16:03:08.379Z,2.58
2022-08-03T16:05:35.578Z,2.22
2022-08-03T16:08:03.555Z,1.90
2022-08-03T16:10:31.854Z,3.35
2022-08-03T16:12:59.808Z,2.60
2022-08-03T16:15:26.726Z,3.20
2022-08-03T16:17:53.612Z,2.03
2022-08-03T16:20:31.307Z,2.67
2022-08-03T16:23:09.150Z,2.92
2022-08-03T16:25:42.766Z,2.85
2022-08-03T16:28:13.401Z,2.80
2022-08-03T16:30:44.461Z,3.65
2022-08-03T16:33:17.307Z,3.40
2022-08-03T16:35:46.184Z,2.50
2022-08-03T16:38:18.522Z,1.90
2022-08-03T16:40:47.352Z,1.67
2022-08-03T16:43:18.119Z,2.28
2022-08-03T16:45:47.095Z,4.47
2022-08-03T16:48:15.160Z,3.63
2022-08-03T16:50:42.106Z,3.63
2022-08-03T16:53:16.266Z,2.55
2022-08-03T16:55:53.400Z,4.53
2022-08-03T16:58:34.685Z,3.72
2022-08-03T17:01:21.559Z,2.28
2022-08-03T17:04:02.411Z,2.10
2022-08-03T17:06:36.899Z,3.85
2022-08-03T17:09:08.491Z,2.20
2022-08-03T17:11:37.766Z,2.70
2022-08-03T17:14:09.530Z,2.72
2022-08-03T17:16:38.323Z,2.40
2022-08-03T17:19:07.601Z,3.03
2022-08-03T17:21:37.684Z,5.97
2022-08-03T17:24:29.996Z,4.15
2022-08-03T17:27:01.183Z,3.55
2022-08-03T17:29:29.745Z,3.13
2022-08-03T17:31:56.927Z,4.20
2022-08-03T17:34:26.556Z,3.25
2022-08-03T17:37:26.883Z,2.33
2022-08-03T17:39:58.581Z,2.50
2022-08-03T17:42:30.323Z,2.70
2022-08-03T17:47:42.443Z,2.88
2022-08-03T17:53:07.731Z,2.25
2022-08-03T17:56:09.975Z,5.80
2022-08-03T17:59:08.536Z,3.20
2022-08-03T18:02:18.547Z,2.15
2022-08-03T18:05:16.329Z,3.70
2022-08-03T18:07:59.376Z,2.60
2022-08-03T18:10:34.932Z,2.53
2022-08-03T18:13:10.482Z,6.80
2022-08-03T18:15:43.539Z,3.10
2022-08-03T18:20:42.116Z,3.28
2022-08-03T18:23:25.538Z,4.32
2022-08-03T18:26:00.174Z,2.75
2022-08-03T18:28:28.885Z,2.22
2022-08-03T18:30:56.499Z,2.25
2022-08-03T18:34:19.337Z,2.80
2022-08-03T18:36:21.642Z,4.07
2022-08-03T18:38:51.803Z,5.15
2022-08-03T18:41:33.191Z,5.35
2022-08-03T18:44:08.469Z,5.97
2022-08-03T18:47:07.258Z,3.15
2022-08-03T18:50:27.861Z,4.60
2022-08-03T18:53:15.671Z,3.55
2022-08-03T18:56:02.153Z,4.47
2022-08-03T18:58:48.620Z,3.75
2022-08-03T19:01:58.643Z,6.55
2022-08-03T19:04:46.504Z,3.22
2022-08-03T19:07:22.139Z,6.13
2022-08-03T19:10:00.017Z,3.92
2022-08-03T19:12:54.191Z,3.78
2022-08-03T19:15:36.469Z,4.60
2022-08-03T19:18:08.899Z,4.55
2022-08-03T19:20:38.194Z,2.88
2022-08-03T19:23:06.515Z,6.32
2022-08-03T19:25:38.504Z,5.15
2022-08-03T19:28:07.262Z,3.90
2022-08-03T19:30:40.030Z,3.35
2022-08-03T19:33:08.493Z,3.80
2022-08-03T19:35:54.819Z,5.55
2022-08-03T19:38:28.311Z,3.30
2022-08-03T19:41:03.528Z,3.90
2022-08-03T19:43:49.444Z,4.85
2022-08-03T19:46:30.069Z,3.03
2022-08-03T19:49:04.785Z,3.97
2022-08-03T19:54:53.109Z,2.70
2022-08-03T19:57:27.090Z,4.40
2022-08-03T19:59:55.844Z,2.95
2022-08-03T20:02:26.278Z,5.43
2022-08-03T20:04:56.676Z,5.10
2022-08-03T20:07:24.976Z,3.33
2022-08-03T20:09:54.402Z,3.35
2022-08-03T20:12:28.282Z,2.88
2022-08-03T20:14:57.603Z,5.10
2022-08-03T20:17:54.555Z,2.97
2022-08-03T20:20:12.266Z,4.57
2022-08-03T20:22:45.544Z,2.70
2022-08-03T20:25:16.210Z,3.58
2022-08-03T20:28:08.168Z,3.20
2022-08-03T20:30:37.230Z,3.13
2022-08-03T20:33:04.771Z,3.45
2022-08-03T20:35:32.911Z,3.80
2022-08-03T20:38:00.261Z,4.03
2022-08-03T20:40:27.357Z,3.97
2022-08-03T20:42:55.260Z,4.22
2022-08-03T20:45:59.074Z,5.82
2022-08-03T20:48:10.468Z,6.50
2022-08-03T20:50:40.828Z,5.43
2022-08-03T20:53:12.046Z,4.03
2022-08-03T20:55:47.852Z,4.40
2022-08-03T20:58:26.214Z,2.78
2022-08-03T21:00:53.895Z,3.20
2022-08-03T21:03:20.739Z,5.18
2022-08-03T21:05:53.514Z,3.22
2022-08-03T21:08:22.877Z,3.53
2022-08-03T21:10:52.505Z,4.45
2022-08-03T21:13:04.438Z,6.43
2022-08-03T21:13:38.156Z,3.55
2022-08-03T21:16:14.609Z,3.25
2022-08-03T21:18:51.642Z,3.65
2022-08-03T21:21:21.119Z,4.82
2022-08-03T21:23:53.286Z,5.53
2022-08-03T21:26:26.081Z,3.78
2022-08-03T21:28:55.124Z,5.13
2022-08-03T21:31:25.692Z,4.50
2022-08-03T21:33:58.065Z,3.35
2022-08-03T21:36:28.038Z,4.60
2022-08-03T21:38:57.246Z,5.00
2022-08-03T21:41:27.299Z,3.35
2022-08-03T21:43:54.209Z,4.28
2022-08-03T21:46:22.087Z,3.78
2022-08-03T21:48:54.268Z,3.47
2022-08-03T21:51:25.064Z,3.92
2022-08-03T21:54:02.209Z,7.13
2022-08-03T21:56:51.491Z,3.42
2022-08-03T21:59:20.389Z,5.32
2022-08-03T22:01:51.310Z,4.13
2022-08-03T22:04:42.665Z,4.40
2022-08-03T22:07:09.297Z,5.68
2022-08-03T22:09:36.629Z,3.63
2022-08-03T22:12:04.495Z,4.10
2022-08-03T22:14:34.331Z,4.00
2022-08-03T22:17:06.234Z,5.60
2022-08-03T22:19:33.252Z,6.97
2022-08-03T22:22:01.447Z,4.07
2022-08-03T22:24:31.935Z,4.07
2022-08-03T22:27:20.630Z,3.97
2022-08-03T22:29:49.121Z,4.72
2022-08-03T22:32:15.918Z,5.50
2022-08-03T22:34:43.819Z,5.95
2022-08-03T22:37:11.067Z,4.13
2022-08-03T22:39:39.728Z,3.60
2022-08-03T22:42:06.880Z,4.10
2022-08-03T22:44:35.869Z,5.18
2022-08-03T22:47:04.123Z,5.60
2022-08-03T22:49:32.031Z,4.05
2022-08-03T22:51:59.474Z,6.15
2022-08-03T22:54:26.292Z,4.30
2022-08-03T22:56:53.046Z,6.72
2022-08-03T22:59:40.831Z,5.95
2022-08-03T23:02:20.142Z,5.07
2022-08-03T23:04:55.126Z,7.35
2022-08-03T23:07:30.024Z,8.00
2022-08-03T23:09:58.496Z,6.90
2022-08-03T23:12:26.379Z,4.72
2022-08-03T23:14:56.305Z,4.05
2022-08-03T23:17:26.151Z,4.57
2022-08-03T23:19:54.670Z,4.43
2022-08-03T23:22:29.553Z,3.72
2022-08-03T23:24:58.778Z,4.03
2022-08-03T23:27:27.573Z,6.78
2022-08-03T23:29:57.371Z,4.30
2022-08-03T23:32:29.330Z,4.30
2022-08-03T23:35:17.250Z,4.35
2022-08-03T23:38:04.536Z,5.43
2022-08-03T23:40:33.443Z,4.30
2022-08-03T23:43:01.904Z,6.40
2022-08-03T23:45:31.662Z,4.05
2022-08-03T23:47:58.457Z,6.47
2022-08-03T23:50:28.303Z,5.00
2022-08-03T23:53:01.074Z,4.88
2022-08-03T23:55:54.181Z,6.43
2022-08-03T23:58:45.958Z,4.88
